createdAt,value
2022-08-27T15:34:17.377Z,64.04
2022-08-27T15:39:49.250Z,63.91
2022-08-27T15:45:20.759Z,63.98
2022-08-27T15:51:09.682Z,64.01
2022-08-27T15:56:40.931Z,63.86
2022-08-27T16:02:19.252Z,64.00
2022-08-27T16:07:52.251Z,63.82
2022-08-27T16:13:26.330Z,63.64
2022-08-27T16:19:03.236Z,63.75
2022-08-27T16:24:36.209Z,63.26
2022-08-27T16:30:09.151Z,63.20
2022-08-27T16:35:42.474Z,63.27
2022-08-27T16:41:14.719Z,63.24
2022-08-27T16:46:49.157Z,63.12
2022-08-27T16:52:24.601Z,62.67
2022-08-27T16:57:58.504Z,62.37
2022-08-27T17:03:37.754Z,62.10
2022-08-27T17:09:23.709Z,62.79
2022-08-27T17:14:57.218Z,62.52
2022-08-27T17:20:31.106Z,62.37
2022-08-27T17:26:04.212Z,62.21
2022-08-27T17:31:37.095Z,62.83
2022-08-27T17:37:09.893Z,62.39
2022-08-27T17:42:41.583Z,62.60
2022-08-27T17:48:19.151Z,62.75
2022-08-27T17:53:57.221Z,62.82
2022-08-27T17:59:33.483Z,62.93
2022-08-27T18:05:06.243Z,62.86
2022-08-27T18:10:38.262Z,63.01
2022-08-27T18:16:09.600Z,63.09
2022-08-27T18:21:46.762Z,63.00
2022-08-27T18:27:18.867Z,63.04
2022-08-27T18:32:50.598Z,63.12
2022-08-27T18:38:23.839Z,63.41
2022-08-27T18:43:55.706Z,63.14
2022-08-27T18:49:28.382Z,63.34
2022-08-27T18:55:01.010Z,63.45
2022-08-27T19:00:32.713Z,63.51
2022-08-27T19:06:08.920Z,63.43
2022-08-27T19:11:42.021Z,63.51
2022-08-27T19:17:23.354Z,63.56
2022-08-27T19:22:54.940Z,63.59
2022-08-27T19:28:32.238Z,63.82
2022-08-27T19:34:06.387Z,63.77
2022-08-27T19:39:38.711Z,63.82
2022-08-27T19:45:10.904Z,63.88
2022-08-27T19:50:43.091Z,63.92
2022-08-27T19:56:15.549Z,64.09
2022-08-27T20:01:47.117Z,64.00
2022-08-27T20:07:19.574Z,64.11
2022-08-27T20:12:50.983Z,64.11
2022-08-27T20:18:22.398Z,64.07
2022-08-27T20:23:54.023Z,64.18
2022-08-27T20:29:32.737Z,64.27
2022-08-27T20:35:07.482Z,64.40
2022-08-27T20:40:39.521Z,64.33
2022-08-27T20:46:11.001Z,64.36
2022-08-27T20:52:02.307Z,64.44
2022-08-27T20:57:36.186Z,64.43
2022-08-27T21:03:11.718Z,64.49
2022-08-27T21:08:43.269Z,64.56
2022-08-27T21:14:15.640Z,64.60
2022-08-27T21:19:48.571Z,64.60
2022-08-27T21:25:24.841Z,64.54
2022-08-27T21:30:57.213Z,64.64
2022-08-27T21:36:29.861Z,64.51
2022-08-27T21:42:03.613Z,64.53
2022-08-27T21:47:36.929Z,64.58
2022-08-27T21:53:09.223Z,64.63
2022-08-27T21:58:41.114Z,64.63
2022-08-27T22:04:13.181Z,64.57
2022-08-27T22:09:44.260Z,64.55
2022-08-27T22:15:15.300Z,64.48
2022-08-27T22:20:46.538Z,64.36
2022-08-27T22:26:17.745Z,64.27
2022-08-27T22:31:49.076Z,64.21
2022-08-27T22:37:20.494Z,64.32
2022-08-27T22:42:52.050Z,64.11
2022-08-27T22:48:23.958Z,63.82
2022-08-27T22:53:55.208Z,63.75
2022-08-27T22:59:25.986Z,63.79
2022-08-27T23:04:56.903Z,63.38
2022-08-27T23:10:29.087Z,63.73
2022-08-27T23:16:02.083Z,63.12
2022-08-27T23:21:33.355Z,63.59
2022-08-27T23:27:23.086Z,63.44
2022-08-27T23:32:55.575Z,63.13
2022-08-27T23:38:26.920Z,63.30
2022-08-27T23:43:58.232Z,63.12
2022-08-27T23:49:30.165Z,63.19
2022-08-27T23:55:01.996Z,62.92
